<?xml version="1.0" encoding="UTF-8" standalone="no" ?><gpx xmlns="http://www.topografix.com/GPX/1/1" xmlns:gpxx="http://www.garmin.com/xmlschemas/GpxExtensions/v3" xmlns:wptx1="http://www.garmin.com/xmlschemas/WaypointExtension/v1" xmlns:gpxtpx="http://www.garmin.com/xmlschemas/TrackPointExtension/v1" creator="Dakota 20" version="1.1" xmlns:xsi="http://www.w3.org/2001/XMLSchema-instance" xsi:schemaLocation="http://www.topografix.com/GPX/1/1 http://www.topografix.com/GPX/1/1/gpx.xsd http://www.garmin.com/xmlschemas/GpxExtensions/v3 http://www8.garmin.com/xmlschemas/GpxExtensionsv3.xsd http://www.garmin.com/xmlschemas/WaypointExtension/v1 http://www8.garmin.com/xmlschemas/WaypointExtensionv1.xsd http://www.garmin.com/xmlschemas/TrackPointExtension/v1 http://www.garmin.com/xmlschemas/TrackPointExtensionv1.xsd"><metadata><link href="http://www.garmin.com"><text>Garmin International</text></link><time>2014-11-05T15:25:11Z</time></metadata><trk><name>Current Track: 05 NOV 2014 10:09</name><extensions><gpxx:TrackExtension><gpxx:DisplayColor>Cyan</gpxx:DisplayColor></gpxx:TrackExtension></extensions><trkseg><trkpt lat="51.8155421410" lon="-2.1521127317"><ele>170.29</ele><time>2014-11-05T10:09:46Z</time></trkpt><trkpt lat="51.8155437335" lon="-2.1521118097"><ele>167.89</ele><time>2014-11-05T10:09:50Z</time></trkpt><trkpt lat="51.8155436497" lon="-2.1521123964"><ele>169.33</ele><time>2014-11-05T10:09:52Z</time></trkpt><trkpt lat="51.8156371079" lon="-2.1522056870"><ele>166.93</ele><time>2014-11-05T10:10:10Z</time></trkpt><trkpt lat="51.8156541232" lon="-2.1522267256"><ele>166.45</ele><time>2014-11-05T10:10:12Z</time></trkpt><trkpt lat="51.8157977052" lon="-2.1523537114"><ele>163.08</ele><time>2014-11-05T10:10:32Z</time></trkpt><trkpt lat="51.8159362581" lon="-2.1524325013"><ele>162.12</ele><time>2014-11-05T10:10:46Z</time></trkpt><trkpt lat="51.8159681093" lon="-2.1527034044"><ele>159.24</ele><time>2014-11-05T10:11:07Z</time></trkpt><trkpt lat="51.8159914948" lon="-2.1529832762"><ele>158.27</ele><time>2014-11-05T10:11:26Z</time></trkpt><trkpt lat="51.8160043191" lon="-2.1531691868"><ele>158.75</ele><time>2014-11-05T10:11:45Z</time></trkpt><trkpt lat="51.8160184845" lon="-2.1532789897"><ele>158.75</ele><time>2014-11-05T10:12:02Z</time></trkpt><trkpt lat="51.8159945123" lon="-2.1535373200"><ele>161.64</ele><time>2014-11-05T10:12:21Z</time></trkpt><trkpt lat="51.8159298878" lon="-2.1538210474"><ele>165.00</ele><time>2014-11-05T10:12:39Z</time></trkpt><trkpt lat="51.8159389403" lon="-2.1540396474"><ele>167.41</ele><time>2014-11-05T10:13:01Z</time></trkpt><trkpt lat="51.8159313966" lon="-2.1541895159"><ele>170.77</ele><time>2014-11-05T10:13:15Z</time></trkpt><trkpt lat="51.8159178179" lon="-2.1545683779"><ele>171.73</ele><time>2014-11-05T10:13:32Z</time></trkpt><trkpt lat="51.8159215059" lon="-2.1547509357"><ele>172.21</ele><time>2014-11-05T10:13:47Z</time></trkpt><trkpt lat="51.8159779999" lon="-2.1548803523"><ele>175.58</ele><time>2014-11-05T10:13:57Z</time></trkpt><trkpt lat="51.8160632439" lon="-2.1551722940"><ele>177.02</ele><time>2014-11-05T10:14:17Z</time></trkpt><trkpt lat="51.8160935864" lon="-2.1554853581"><ele>179.90</ele><time>2014-11-05T10:14:34Z</time></trkpt><trkpt lat="51.8161328137" lon="-2.1557365637"><ele>181.35</ele><time>2014-11-05T10:14:53Z</time></trkpt><trkpt lat="51.8162258528" lon="-2.1557143517"><ele>183.75</ele><time>2014-11-05T10:15:10Z</time></trkpt><trkpt lat="51.8163523357" lon="-2.1558190417"><ele>183.75</ele><time>2014-11-05T10:15:26Z</time></trkpt><trkpt lat="51.8163338955" lon="-2.1558482107"><ele>184.23</ele><time>2014-11-05T10:15:51Z</time></trkpt><trkpt lat="51.8163381703" lon="-2.1558546647"><ele>184.71</ele><time>2014-11-05T10:16:13Z</time></trkpt><trkpt lat="51.8165292777" lon="-2.1559944749"><ele>186.63</ele><time>2014-11-05T10:16:37Z</time></trkpt><trkpt lat="51.8166465405" lon="-2.1561465226"><ele>188.56</ele><time>2014-11-05T10:16:56Z</time></trkpt><trkpt lat="51.8167374842" lon="-2.1563790366"><ele>191.92</ele><time>2014-11-05T10:17:14Z</time></trkpt><trkpt lat="51.8167952355" lon="-2.1566450782"><ele>192.40</ele><time>2014-11-05T10:17:35Z</time></trkpt><trkpt lat="51.8168105744" lon="-2.1568532009"><ele>195.28</ele><time>2014-11-05T10:17:50Z</time></trkpt><trkpt lat="51.8168815691" lon="-2.1569272969"><ele>196.25</ele><time>2014-11-05T10:18:00Z</time></trkpt><trkpt lat="51.8170481175" lon="-2.1572155505"><ele>198.17</ele><time>2014-11-05T10:18:20Z</time></trkpt><trkpt lat="51.8171037734" lon="-2.1573277004"><ele>201.05</ele><time>2014-11-05T10:18:36Z</time></trkpt><trkpt lat="51.8171595968" lon="-2.1574752219"><ele>202.98</ele><time>2014-11-05T10:18:58Z</time></trkpt><trkpt lat="51.8171871733" lon="-2.1575713623"><ele>205.38</ele><time>2014-11-05T10:19:18Z</time></trkpt><trkpt lat="51.8172539771" lon="-2.1577139385"><ele>206.34</ele><time>2014-11-05T10:19:39Z</time></trkpt><trkpt lat="51.8172887620" lon="-2.1577932313"><ele>209.22</ele><time>2014-11-05T10:19:46Z</time></trkpt><trkpt lat="51.8174297456" lon="-2.1581183653"><ele>210.67</ele><time>2014-11-05T10:20:07Z</time></trkpt><trkpt lat="51.8174978066" lon="-2.1582665574"><ele>214.03</ele><time>2014-11-05T10:20:25Z</time></trkpt><trkpt lat="51.8176307436" lon="-2.1586027555"><ele>215.47</ele><time>2014-11-05T10:20:45Z</time></trkpt><trkpt lat="51.8177138083" lon="-2.1588847227"><ele>218.84</ele><time>2014-11-05T10:21:06Z</time></trkpt><trkpt lat="51.8177713919" lon="-2.1589486767"><ele>217.40</ele><time>2014-11-05T10:21:30Z</time></trkpt><trkpt lat="51.8178005610" lon="-2.1590302326"><ele>218.36</ele><time>2014-11-05T10:21:53Z</time></trkpt><trkpt lat="51.8178801890" lon="-2.1593626589"><ele>220.28</ele><time>2014-11-05T10:22:13Z</time></trkpt><trkpt lat="51.8179150578" lon="-2.1595750563"><ele>223.16</ele><time>2014-11-05T10:22:33Z</time></trkpt><trkpt lat="51.8179291394" lon="-2.1596818417"><ele>224.61</ele><time>2014-11-05T10:22:50Z</time></trkpt><trkpt lat="51.8180387747" lon="-2.1598813310"><ele>225.57</ele><time>2014-11-05T10:23:09Z</time></trkpt><trkpt lat="51.8181117810" lon="-2.1603243984"><ele>227.97</ele><time>2014-11-05T10:23:31Z</time></trkpt><trkpt lat="51.8182371743" lon="-2.1604420803"><ele>227.97</ele><time>2014-11-05T10:23:54Z</time></trkpt><trkpt lat="51.8183370028" lon="-2.1608429030"><ele>227.01</ele><time>2014-11-05T10:24:11Z</time></trkpt><trkpt lat="51.8183654174" lon="-2.1610520314"><ele>227.97</ele><time>2014-11-05T10:24:29Z</time></trkpt><trkpt lat="51.8184231687" lon="-2.1611283906"><ele>229.41</ele><time>2014-11-05T10:24:48Z</time></trkpt><trkpt lat="51.8184894696" lon="-2.1613179892"><ele>229.41</ele><time>2014-11-05T10:25:06Z</time></trkpt><trkpt lat="51.8184986059" lon="-2.1613500081"><ele>229.89</ele><time>2014-11-05T10:25:25Z</time></trkpt><trkpt lat="51.8185512442" lon="-2.1614438854"><ele>230.85</ele><time>2014-11-05T10:25:43Z</time></trkpt><trkpt lat="51.8185940757" lon="-2.1615843661"><ele>232.30</ele><time>2014-11-05T10:25:58Z</time></trkpt><trkpt lat="51.8185884599" lon="-2.1616160497"><ele>232.30</ele><time>2014-11-05T10:26:21Z</time></trkpt><trkpt lat="51.8186099175" lon="-2.1617181413"><ele>232.78</ele><time>2014-11-05T10:26:40Z</time></trkpt><trkpt lat="51.8186307047" lon="-2.1618403494"><ele>234.22</ele><time>2014-11-05T10:26:58Z</time></trkpt><trkpt lat="51.8186866958" lon="-2.1620197222"><ele>235.66</ele><time>2014-11-05T10:27:15Z</time></trkpt><trkpt lat="51.8185835145" lon="-2.1625342872"><ele>237.58</ele><time>2014-11-05T10:27:35Z</time></trkpt><trkpt lat="51.8185914773" lon="-2.1626863349"><ele>238.06</ele><time>2014-11-05T10:27:51Z</time></trkpt><trkpt lat="51.8186505698" lon="-2.1627213713"><ele>238.54</ele><time>2014-11-05T10:28:07Z</time></trkpt><trkpt lat="51.8186721951" lon="-2.1627196949"><ele>238.54</ele><time>2014-11-05T10:28:24Z</time></trkpt><trkpt lat="51.8186843488" lon="-2.1627258975"><ele>238.06</ele><time>2014-11-05T10:28:38Z</time></trkpt><trkpt lat="51.8187764660" lon="-2.1627978981"><ele>239.99</ele><time>2014-11-05T10:28:55Z</time></trkpt><trkpt lat="51.8188297749" lon="-2.1630057693"><ele>240.95</ele><time>2014-11-05T10:29:09Z</time></trkpt><trkpt lat="51.8188415095" lon="-2.1630906779"><ele>241.91</ele><time>2014-11-05T10:29:21Z</time></trkpt><trkpt lat="51.8188699242" lon="-2.1631739940"><ele>244.31</ele><time>2014-11-05T10:29:39Z</time></trkpt><trkpt lat="51.8190388195" lon="-2.1633409616"><ele>246.72</ele><time>2014-11-05T10:29:58Z</time></trkpt><trkpt lat="51.8191373069" lon="-2.1634825319"><ele>249.12</ele><time>2014-11-05T10:30:19Z</time></trkpt><trkpt lat="51.8192300107" lon="-2.1637108549"><ele>251.52</ele><time>2014-11-05T10:30:39Z</time></trkpt><trkpt lat="51.8193024304" lon="-2.1637977753"><ele>253.44</ele><time>2014-11-05T10:30:55Z</time></trkpt><trkpt lat="51.8193722516" lon="-2.1638754755"><ele>256.81</ele><time>2014-11-05T10:31:11Z</time></trkpt><trkpt lat="51.8194502871" lon="-2.1639799140"><ele>259.21</ele><time>2014-11-05T10:31:28Z</time></trkpt><trkpt lat="51.8194965553" lon="-2.1640651580"><ele>261.14</ele><time>2014-11-05T10:31:43Z</time></trkpt><trkpt lat="51.8195558153" lon="-2.1641315427"><ele>263.54</ele><time>2014-11-05T10:32:03Z</time></trkpt><trkpt lat="51.8196225353" lon="-2.1642289404"><ele>264.98</ele><time>2014-11-05T10:32:19Z</time></trkpt><trkpt lat="51.8196866568" lon="-2.1643716842"><ele>265.46</ele><time>2014-11-05T10:32:35Z</time></trkpt><trkpt lat="51.8198477570" lon="-2.1646432579"><ele>267.38</ele><time>2014-11-05T10:32:52Z</time></trkpt><trkpt lat="51.8199114595" lon="-2.1647885162"><ele>268.35</ele><time>2014-11-05T10:33:06Z</time></trkpt><trkpt lat="51.8199906684" lon="-2.1649453416"><ele>270.27</ele><time>2014-11-05T10:33:26Z</time></trkpt><trkpt lat="51.8200956099" lon="-2.1651458368"><ele>270.27</ele><time>2014-11-05T10:33:44Z</time></trkpt><trkpt lat="51.8202454783" lon="-2.1654065140"><ele>270.27</ele><time>2014-11-05T10:34:02Z</time></trkpt><trkpt lat="51.8203047384" lon="-2.1655516047"><ele>269.31</ele><time>2014-11-05T10:34:19Z</time></trkpt><trkpt lat="51.8204212468" lon="-2.1656997968"><ele>269.31</ele><time>2014-11-05T10:34:41Z</time></trkpt><trkpt lat="51.8204835244" lon="-2.1657291334"><ele>269.79</ele><time>2014-11-05T10:35:05Z</time></trkpt><trkpt lat="51.8205461372" lon="-2.1657544468"><ele>269.79</ele><time>2014-11-05T10:35:11Z</time></trkpt><trkpt lat="51.8207947444" lon="-2.1659900621"><ele>268.35</ele><time>2014-11-05T10:35:29Z</time></trkpt><trkpt lat="51.8209087383" lon="-2.1660626493"><ele>266.90</ele><time>2014-11-05T10:35:46Z</time></trkpt><trkpt lat="51.8209912162" lon="-2.1661422774"><ele>265.94</ele><time>2014-11-05T10:36:04Z</time></trkpt><trkpt lat="51.8210292701" lon="-2.1661253460"><ele>265.94</ele><time>2014-11-05T10:36:21Z</time></trkpt><trkpt lat="51.8210283481" lon="-2.1661024634"><ele>266.42</ele><time>2014-11-05T10:36:40Z</time></trkpt><trkpt lat="51.8210962415" lon="-2.1661161259"><ele>266.42</ele><time>2014-11-05T10:37:05Z</time></trkpt><trkpt lat="51.8210625462" lon="-2.1661429480"><ele>265.94</ele><time>2014-11-05T10:37:19Z</time></trkpt><trkpt lat="51.8211227283" lon="-2.1661699377"><ele>265.46</ele><time>2014-11-05T10:37:33Z</time></trkpt><trkpt lat="51.8212508876" lon="-2.1662835963"><ele>263.06</ele><time>2014-11-05T10:37:50Z</time></trkpt><trkpt lat="51.8213519733" lon="-2.1663231589"><ele>261.62</ele><time>2014-11-05T10:38:05Z</time></trkpt><trkpt lat="51.8214961421" lon="-2.1663367376"><ele>261.14</ele><time>2014-11-05T10:38:19Z</time></trkpt><trkpt lat="51.8216910213" lon="-2.1662874520"><ele>260.17</ele><time>2014-11-05T10:38:37Z</time></trkpt><trkpt lat="51.8217382953" lon="-2.1662532538"><ele>258.73</ele><time>2014-11-05T10:38:57Z</time></trkpt><trkpt lat="51.8218792789" lon="-2.1661872044"><ele>258.73</ele><time>2014-11-05T10:39:14Z</time></trkpt><trkpt lat="51.8218575697" lon="-2.1662121825"><ele>259.21</ele><time>2014-11-05T10:39:35Z</time></trkpt><trkpt lat="51.8218189292" lon="-2.1661604661"><ele>259.21</ele><time>2014-11-05T10:40:00Z</time></trkpt><trkpt lat="51.8219185062" lon="-2.1661315486"><ele>259.21</ele><time>2014-11-05T10:40:19Z</time></trkpt><trkpt lat="51.8219817895" lon="-2.1660807543"><ele>257.29</ele><time>2014-11-05T10:40:26Z</time></trkpt><trkpt lat="51.8221034948" lon="-2.1659318916"><ele>255.37</ele><time>2014-11-05T10:40:46Z</time></trkpt><trkpt lat="51.8221683707" lon="-2.1658557002"><ele>254.89</ele><time>2014-11-05T10:41:05Z</time></trkpt><trkpt lat="51.8222226854" lon="-2.1657458134"><ele>254.89</ele><time>2014-11-05T10:41:10Z</time></trkpt><trkpt lat="51.8223371822" lon="-2.1654809453"><ele>252.00</ele><time>2014-11-05T10:41:26Z</time></trkpt><trkpt lat="51.8224466499" lon="-2.1652097069"><ele>250.56</ele><time>2014-11-05T10:41:42Z</time></trkpt><trkpt lat="51.8225275353" lon="-2.1650349442"><ele>250.08</ele><time>2014-11-05T10:41:55Z</time></trkpt><trkpt lat="51.8225809280" lon="-2.1649428271"><ele>248.64</ele><time>2014-11-05T10:42:02Z</time></trkpt><trkpt lat="51.8227231689" lon="-2.1647269931"><ele>248.16</ele><time>2014-11-05T10:42:16Z</time></trkpt><trkpt lat="51.8228882924" lon="-2.1646002587"><ele>245.75</ele><time>2014-11-05T10:42:31Z</time></trkpt><trkpt lat="51.8230124284" lon="-2.1642995160"><ele>243.35</ele><time>2014-11-05T10:42:46Z</time></trkpt><trkpt lat="51.8230275158" lon="-2.1641956642"><ele>244.31</ele><time>2014-11-05T10:43:01Z</time></trkpt><trkpt lat="51.8230045494" lon="-2.1638574544"><ele>246.23</ele><time>2014-11-05T10:43:15Z</time></trkpt><trkpt lat="51.8229597900" lon="-2.1636162233"><ele>247.68</ele><time>2014-11-05T10:43:29Z</time></trkpt><trkpt lat="51.8229865283" lon="-2.1633278858"><ele>248.64</ele><time>2014-11-05T10:43:45Z</time></trkpt><trkpt lat="51.8230011128" lon="-2.1632459108"><ele>249.12</ele><time>2014-11-05T10:44:06Z</time></trkpt><trkpt lat="51.8229905516" lon="-2.1631166618"><ele>250.56</ele><time>2014-11-05T10:44:21Z</time></trkpt><trkpt lat="51.8229256757" lon="-2.1629381273"><ele>252.00</ele><time>2014-11-05T10:44:38Z</time></trkpt><trkpt lat="51.8228693493" lon="-2.1627657115"><ele>255.37</ele><time>2014-11-05T10:44:56Z</time></trkpt><trkpt lat="51.8228509091" lon="-2.1626083832"><ele>258.73</ele><time>2014-11-05T10:45:14Z</time></trkpt><trkpt lat="51.8227917328" lon="-2.1623539086"><ele>261.62</ele><time>2014-11-05T10:45:31Z</time></trkpt><trkpt lat="51.8227156252" lon="-2.1622229833"><ele>263.54</ele><time>2014-11-05T10:45:44Z</time></trkpt><trkpt lat="51.8226951733" lon="-2.1621876117"><ele>264.50</ele><time>2014-11-05T10:46:00Z</time></trkpt><trkpt lat="51.8226607237" lon="-2.1623316966"><ele>265.46</ele><time>2014-11-05T10:46:17Z</time></trkpt><trkpt lat="51.8226089235" lon="-2.1625670604"><ele>265.46</ele><time>2014-11-05T10:46:33Z</time></trkpt><trkpt lat="51.8225515075" lon="-2.1627721656"><ele>266.42</ele><time>2014-11-05T10:46:46Z</time></trkpt><trkpt lat="51.8225282058" lon="-2.1629858203"><ele>266.90</ele><time>2014-11-05T10:47:00Z</time></trkpt><trkpt lat="51.8225162197" lon="-2.1631045919"><ele>266.90</ele><time>2014-11-05T10:47:17Z</time></trkpt><trkpt lat="51.8224536907" lon="-2.1633508522"><ele>266.90</ele><time>2014-11-05T10:47:31Z</time></trkpt><trkpt lat="51.8223720510" lon="-2.1635597292"><ele>267.38</ele><time>2014-11-05T10:47:47Z</time></trkpt><trkpt lat="51.8223806005" lon="-2.1635650098"><ele>267.86</ele><time>2014-11-05T10:48:10Z</time></trkpt><trkpt lat="51.8223666865" lon="-2.1636872180"><ele>268.83</ele><time>2014-11-05T10:48:27Z</time></trkpt><trkpt lat="51.8222568836" lon="-2.1638975199"><ele>269.31</ele><time>2014-11-05T10:48:45Z</time></trkpt><trkpt lat="51.8222326599" lon="-2.1639255993"><ele>269.79</ele><time>2014-11-05T10:49:07Z</time></trkpt><trkpt lat="51.8221833743" lon="-2.1640282776"><ele>269.79</ele><time>2014-11-05T10:49:26Z</time></trkpt><trkpt lat="51.8221034948" lon="-2.1641605441"><ele>270.27</ele><time>2014-11-05T10:49:42Z</time></trkpt><trkpt lat="51.8220475875" lon="-2.1642965823"><ele>270.75</ele><time>2014-11-05T10:49:58Z</time></trkpt><trkpt lat="51.8219833821" lon="-2.1643930580"><ele>271.23</ele><time>2014-11-05T10:50:13Z</time></trkpt><trkpt lat="51.8218180072" lon="-2.1646036115"><ele>270.27</ele><time>2014-11-05T10:50:28Z</time></trkpt><trkpt lat="51.8217682187" lon="-2.1646650508"><ele>268.83</ele><time>2014-11-05T10:50:42Z</time></trkpt><trkpt lat="51.8216048554" lon="-2.1649124008"><ele>268.83</ele><time>2014-11-05T10:51:00Z</time></trkpt><trkpt lat="51.8215483613" lon="-2.1650801226"><ele>268.83</ele><time>2014-11-05T10:51:09Z</time></trkpt><trkpt lat="51.8215002492" lon="-2.1652344335"><ele>268.35</ele><time>2014-11-05T10:51:23Z</time></trkpt><trkpt lat="51.8214365467" lon="-2.1653562225"><ele>268.83</ele><time>2014-11-05T10:51:38Z</time></trkpt><trkpt lat="51.8213407416" lon="-2.1655080188"><ele>268.35</ele><time>2014-11-05T10:51:52Z</time></trkpt><trkpt lat="51.8213223014" lon="-2.1656600665"><ele>267.86</ele><time>2014-11-05T10:52:09Z</time></trkpt><trkpt lat="51.8213010114" lon="-2.1657558717"><ele>266.90</ele><time>2014-11-05T10:52:22Z</time></trkpt><trkpt lat="51.8212123308" lon="-2.1659843624"><ele>266.42</ele><time>2014-11-05T10:52:37Z</time></trkpt><trkpt lat="51.8210759573" lon="-2.1660514176"><ele>266.90</ele><time>2014-11-05T10:52:52Z</time></trkpt><trkpt lat="51.8210263364" lon="-2.1661137789"><ele>266.90</ele><time>2014-11-05T10:53:09Z</time></trkpt><trkpt lat="51.8210254982" lon="-2.1661382541"><ele>266.42</ele><time>2014-11-05T10:53:36Z</time></trkpt><trkpt lat="51.8210304435" lon="-2.1661417745"><ele>266.90</ele><time>2014-11-05T10:53:53Z</time></trkpt><trkpt lat="51.8210257497" lon="-2.1661375836"><ele>266.42</ele><time>2014-11-05T10:54:15Z</time></trkpt><trkpt lat="51.8209938146" lon="-2.1661235858"><ele>266.90</ele><time>2014-11-05T10:54:40Z</time></trkpt><trkpt lat="51.8208855204" lon="-2.1660437901"><ele>268.83</ele><time>2014-11-05T10:54:55Z</time></trkpt><trkpt lat="51.8207604624" lon="-2.1659419499"><ele>269.79</ele><time>2014-11-05T10:55:10Z</time></trkpt><trkpt lat="51.8206122704" lon="-2.1658257768"><ele>269.79</ele><time>2014-11-05T10:55:26Z</time></trkpt><trkpt lat="51.8205420300" lon="-2.1657634154"><ele>270.27</ele><time>2014-11-05T10:55:39Z</time></trkpt><trkpt lat="51.8205102626" lon="-2.1657217573"><ele>270.27</ele><time>2014-11-05T10:56:05Z</time></trkpt><trkpt lat="51.8205064908" lon="-2.1657085977"><ele>270.27</ele><time>2014-11-05T10:56:30Z</time></trkpt><trkpt lat="51.8205027189" lon="-2.1656971984"><ele>270.75</ele><time>2014-11-05T10:56:54Z</time></trkpt><trkpt lat="51.8204900622" lon="-2.1656750701"><ele>270.75</ele><time>2014-11-05T10:57:21Z</time></trkpt><trkpt lat="51.8204962648" lon="-2.1656694543"><ele>271.23</ele><time>2014-11-05T10:57:39Z</time></trkpt><trkpt lat="51.8205057364" lon="-2.1656833682"><ele>270.75</ele><time>2014-11-05T10:57:53Z</time></trkpt><trkpt lat="51.8205217458" lon="-2.1657085977"><ele>270.75</ele><time>2014-11-05T10:58:09Z</time></trkpt><trkpt lat="51.8205051497" lon="-2.1656856313"><ele>270.75</ele><time>2014-11-05T10:58:29Z</time></trkpt><trkpt lat="51.8205743842" lon="-2.1657940093"><ele>270.75</ele><time>2014-11-05T10:58:43Z</time></trkpt><trkpt lat="51.8206593767" lon="-2.1658521798"><ele>269.31</ele><time>2014-11-05T10:58:58Z</time></trkpt><trkpt lat="51.8207383342" lon="-2.1658995375"><ele>267.86</ele><time>2014-11-05T10:59:15Z</time></trkpt><trkpt lat="51.8209688365" lon="-2.1660747193"><ele>265.46</ele><time>2014-11-05T10:59:33Z</time></trkpt><trkpt lat="51.8211743608" lon="-2.1662705205"><ele>263.54</ele><time>2014-11-05T10:59:51Z</time></trkpt><trkpt lat="51.8213948049" lon="-2.1663498133"><ele>263.06</ele><time>2014-11-05T11:00:07Z</time></trkpt><trkpt lat="51.8214607704" lon="-2.1664011944"><ele>262.58</ele><time>2014-11-05T11:00:26Z</time></trkpt><trkpt lat="51.8214734271" lon="-2.1664371528"><ele>261.62</ele><time>2014-11-05T11:00:49Z</time></trkpt><trkpt lat="51.8214796297" lon="-2.1664584428"><ele>261.62</ele><time>2014-11-05T11:01:09Z</time></trkpt><trkpt lat="51.8214732595" lon="-2.1664747037"><ele>262.10</ele><time>2014-11-05T11:01:31Z</time></trkpt><trkpt lat="51.8214682303" lon="-2.1664819121"><ele>261.62</ele><time>2014-11-05T11:01:58Z</time></trkpt><trkpt lat="51.8214678951" lon="-2.1664972510"><ele>262.10</ele><time>2014-11-05T11:02:23Z</time></trkpt><trkpt lat="51.8214741815" lon="-2.1664968319"><ele>262.10</ele><time>2014-11-05T11:02:49Z</time></trkpt><trkpt lat="51.8214901071" lon="-2.1664838400"><ele>261.62</ele><time>2014-11-05T11:03:17Z</time></trkpt><trkpt lat="51.8215067871" lon="-2.1664877795"><ele>261.62</ele><time>2014-11-05T11:03:44Z</time></trkpt><trkpt lat="51.8214779533" lon="-2.1664954908"><ele>261.62</ele><time>2014-11-05T11:04:14Z</time></trkpt><trkpt lat="51.8214764446" lon="-2.1664929762"><ele>261.62</ele><time>2014-11-05T11:04:40Z</time></trkpt><trkpt lat="51.8214839883" lon="-2.1664959099"><ele>261.14</ele><time>2014-11-05T11:05:12Z</time></trkpt><trkpt lat="51.8214772828" lon="-2.1664905455"><ele>261.62</ele><time>2014-11-05T11:05:38Z</time></trkpt><trkpt lat="51.8214955553" lon="-2.1665100753"><ele>261.14</ele><time>2014-11-05T11:06:02Z</time></trkpt><trkpt lat="51.8214776181" lon="-2.1665052138"><ele>261.62</ele><time>2014-11-05T11:06:21Z</time></trkpt><trkpt lat="51.8214866705" lon="-2.1665202174"><ele>261.14</ele><time>2014-11-05T11:06:43Z</time></trkpt><trkpt lat="51.8214891013" lon="-2.1665149368"><ele>261.62</ele><time>2014-11-05T11:07:07Z</time></trkpt><trkpt lat="51.8214875925" lon="-2.1665454470"><ele>261.62</ele><time>2014-11-05T11:07:32Z</time></trkpt><trkpt lat="51.8214706611" lon="-2.1666112449"><ele>261.62</ele><time>2014-11-05T11:07:40Z</time></trkpt><trkpt lat="51.8214540649" lon="-2.1665665694"><ele>262.10</ele><time>2014-11-05T11:07:58Z</time></trkpt><trkpt lat="51.8214823958" lon="-2.1665461175"><ele>262.10</ele><time>2014-11-05T11:08:22Z</time></trkpt><trkpt lat="51.8215360399" lon="-2.1665382385"><ele>261.62</ele><time>2014-11-05T11:08:46Z</time></trkpt><trkpt lat="51.8215513788" lon="-2.1665274259"><ele>262.10</ele><time>2014-11-05T11:09:14Z</time></trkpt><trkpt lat="51.8215597607" lon="-2.1665240731"><ele>262.10</ele><time>2014-11-05T11:09:36Z</time></trkpt><trkpt lat="51.8215779494" lon="-2.1665012743"><ele>262.10</ele><time>2014-11-05T11:09:57Z</time></trkpt><trkpt lat="51.8215992395" lon="-2.1665027831"><ele>262.10</ele><time>2014-11-05T11:10:19Z</time></trkpt><trkpt lat="51.8214779533" lon="-2.1665541641"><ele>262.10</ele><time>2014-11-05T11:10:43Z</time></trkpt><trkpt lat="51.8214891851" lon="-2.1665638871"><ele>262.10</ele><time>2014-11-05T11:11:07Z</time></trkpt><trkpt lat="51.8214813061" lon="-2.1665703412"><ele>262.10</ele><time>2014-11-05T11:11:30Z</time></trkpt><trkpt lat="51.8215176836" lon="-2.1665682457"><ele>262.58</ele><time>2014-11-05T11:11:52Z</time></trkpt><trkpt lat="51.8216326833" lon="-2.1665745322"><ele>261.14</ele><time>2014-11-05T11:12:11Z</time></trkpt><trkpt lat="51.8217172567" lon="-2.1666754503"><ele>258.25</ele><time>2014-11-05T11:12:29Z</time></trkpt><trkpt lat="51.8218487687" lon="-2.1667969041"><ele>255.37</ele><time>2014-11-05T11:12:47Z</time></trkpt><trkpt lat="51.8219169974" lon="-2.1668585110"><ele>252.00</ele><time>2014-11-05T11:12:59Z</time></trkpt><trkpt lat="51.8219299894" lon="-2.1668556612"><ele>251.52</ele><time>2014-11-05T11:13:01Z</time></trkpt><trkpt lat="51.8221065961" lon="-2.1671035141"><ele>248.16</ele><time>2014-11-05T11:13:13Z</time></trkpt><trkpt lat="51.8221516907" lon="-2.1671478543"><ele>246.72</ele><time>2014-11-05T11:13:17Z</time></trkpt><trkpt lat="51.8222461548" lon="-2.1672389656"><ele>243.35</ele><time>2014-11-05T11:13:30Z</time></trkpt><trkpt lat="51.8223083485" lon="-2.1673610900"><ele>239.99</ele><time>2014-11-05T11:13:42Z</time></trkpt><trkpt lat="51.8223391939" lon="-2.1674418077"><ele>236.62</ele><time>2014-11-05T11:13:56Z</time></trkpt><trkpt lat="51.8223939277" lon="-2.1675591543"><ele>233.26</ele><time>2014-11-05T11:14:08Z</time></trkpt><trkpt lat="51.8225092627" lon="-2.1677159797"><ele>229.89</ele><time>2014-11-05T11:14:21Z</time></trkpt><trkpt lat="51.8226125278" lon="-2.1677273791"><ele>227.01</ele><time>2014-11-05T11:14:38Z</time></trkpt><trkpt lat="51.8227463868" lon="-2.1677779220"><ele>223.64</ele><time>2014-11-05T11:14:48Z</time></trkpt><trkpt lat="51.8228837661" lon="-2.1678401995"><ele>220.76</ele><time>2014-11-05T11:15:06Z</time></trkpt><trkpt lat="51.8230329640" lon="-2.1678607352"><ele>217.88</ele><time>2014-11-05T11:15:23Z</time></trkpt><trkpt lat="51.8231250811" lon="-2.1677955240"><ele>217.88</ele><time>2014-11-05T11:15:44Z</time></trkpt><trkpt lat="51.8231293559" lon="-2.1678081807"><ele>212.11</ele><time>2014-11-05T11:16:04Z</time></trkpt><trkpt lat="51.8231293559" lon="-2.1678080969"><ele>216.91</ele><time>2014-11-05T11:16:05Z</time></trkpt><trkpt lat="51.8230716884" lon="-2.1677961107"><ele>223.16</ele><time>2014-11-05T11:16:21Z</time></trkpt><trkpt lat="51.8230678327" lon="-2.1677952725"><ele>217.40</ele><time>2014-11-05T11:16:22Z</time></trkpt><trkpt lat="51.8230639771" lon="-2.1677945182"><ele>210.67</ele><time>2014-11-05T11:16:23Z</time></trkpt><trkpt lat="51.8230600376" lon="-2.1677936800"><ele>218.84</ele><time>2014-11-05T11:16:24Z</time></trkpt><trkpt lat="51.8230484705" lon="-2.1677912492"><ele>217.40</ele><time>2014-11-05T11:16:27Z</time></trkpt><trkpt lat="51.8230135180" lon="-2.1677840408"><ele>213.07</ele><time>2014-11-05T11:16:36Z</time></trkpt></trkseg><trkseg><trkpt lat="51.8231275957" lon="-2.1677145548"><ele>217.88</ele><time>2014-11-05T11:17:38Z</time></trkpt><trkpt lat="51.8231219798" lon="-2.1677602362"><ele>214.03</ele><time>2014-11-05T11:17:45Z</time></trkpt><trkpt lat="51.8231166992" lon="-2.1677734796"><ele>218.84</ele><time>2014-11-05T11:17:46Z</time></trkpt><trkpt lat="51.8232283462" lon="-2.1676480025"><ele>216.91</ele><time>2014-11-05T11:18:08Z</time></trkpt><trkpt lat="51.8233440164" lon="-2.1674838848"><ele>214.99</ele><time>2014-11-05T11:18:24Z</time></trkpt><trkpt lat="51.8234662246" lon="-2.1673816256"><ele>213.55</ele><time>2014-11-05T11:18:36Z</time></trkpt><trkpt lat="51.8236680608" lon="-2.1670758538"><ele>213.07</ele><time>2014-11-05T11:18:53Z</time></trkpt><trkpt lat="51.8237842340" lon="-2.1669025160"><ele>211.63</ele><time>2014-11-05T11:19:09Z</time></trkpt><trkpt lat="51.8239585776" lon="-2.1666851733"><ele>212.11</ele><time>2014-11-05T11:19:28Z</time></trkpt><trkpt lat="51.8240645248" lon="-2.1665278450"><ele>214.03</ele><time>2014-11-05T11:19:47Z</time></trkpt><trkpt lat="51.8241377827" lon="-2.1663056407"><ele>214.51</ele><time>2014-11-05T11:20:04Z</time></trkpt><trkpt lat="51.8241642695" lon="-2.1660816763"><ele>215.47</ele><time>2014-11-05T11:20:22Z</time></trkpt><trkpt lat="51.8241510261" lon="-2.1657534409"><ele>215.95</ele><time>2014-11-05T11:20:40Z</time></trkpt><trkpt lat="51.8242160697" lon="-2.1654951107"><ele>217.40</ele><time>2014-11-05T11:20:59Z</time></trkpt><trkpt lat="51.8242889922" lon="-2.1652056836"><ele>219.80</ele><time>2014-11-05T11:21:22Z</time></trkpt><trkpt lat="51.8243100308" lon="-2.1650398057"><ele>223.16</ele><time>2014-11-05T11:21:42Z</time></trkpt><trkpt lat="51.8243336678" lon="-2.1647933777"><ele>224.12</ele><time>2014-11-05T11:22:01Z</time></trkpt><trkpt lat="51.8243082706" lon="-2.1645550802"><ele>224.61</ele><time>2014-11-05T11:22:19Z</time></trkpt><trkpt lat="51.8242964521" lon="-2.1643861011"><ele>223.16</ele><time>2014-11-05T11:22:40Z</time></trkpt><trkpt lat="51.8242599908" lon="-2.1642615460"><ele>220.76</ele><time>2014-11-05T11:23:00Z</time></trkpt><trkpt lat="51.8242972903" lon="-2.1640685946"><ele>219.80</ele><time>2014-11-05T11:23:18Z</time></trkpt><trkpt lat="51.8244248629" lon="-2.1638756432"><ele>220.76</ele><time>2014-11-05T11:23:34Z</time></trkpt><trkpt lat="51.8246418703" lon="-2.1637527645"><ele>221.72</ele><time>2014-11-05T11:23:52Z</time></trkpt><trkpt lat="51.8247668445" lon="-2.1637050714"><ele>223.64</ele><time>2014-11-05T11:24:07Z</time></trkpt><trkpt lat="51.8248758093" lon="-2.1636517625"><ele>226.05</ele><time>2014-11-05T11:24:24Z</time></trkpt><trkpt lat="51.8249867857" lon="-2.1636097692"><ele>227.01</ele><time>2014-11-05T11:24:41Z</time></trkpt><trkpt lat="51.8250513263" lon="-2.1635598131"><ele>227.97</ele><time>2014-11-05T11:24:56Z</time></trkpt><trkpt lat="51.8251814134" lon="-2.1634600684"><ele>226.53</ele><time>2014-11-05T11:25:14Z</time></trkpt><trkpt lat="51.8253121711" lon="-2.1633402072"><ele>225.57</ele><time>2014-11-05T11:25:30Z</time></trkpt><trkpt lat="51.8254036177" lon="-2.1631622594"><ele>225.57</ele><time>2014-11-05T11:25:43Z</time></trkpt><trkpt lat="51.8254510593" lon="-2.1630320046"><ele>224.12</ele><time>2014-11-05T11:25:58Z</time></trkpt><trkpt lat="51.8254857603" lon="-2.1629471797"><ele>227.49</ele><time>2014-11-05T11:26:14Z</time></trkpt><trkpt lat="51.8255419191" lon="-2.1628662944"><ele>228.93</ele><time>2014-11-05T11:26:33Z</time></trkpt><trkpt lat="51.8256260734" lon="-2.1628258098"><ele>228.45</ele><time>2014-11-05T11:26:52Z</time></trkpt><trkpt lat="51.8257461861" lon="-2.1626895200"><ele>229.41</ele><time>2014-11-05T11:27:08Z</time></trkpt><trkpt lat="51.8257475272" lon="-2.1626478620"><ele>229.41</ele><time>2014-11-05T11:27:23Z</time></trkpt><trkpt lat="51.8257100601" lon="-2.1624119114"><ele>229.41</ele><time>2014-11-05T11:27:37Z</time></trkpt><trkpt lat="51.8257592618" lon="-2.1620387491"><ele>229.89</ele><time>2014-11-05T11:27:54Z</time></trkpt><trkpt lat="51.8257734273" lon="-2.1618440375"><ele>230.37</ele><time>2014-11-05T11:28:13Z</time></trkpt><trkpt lat="51.8259224575" lon="-2.1616422851"><ele>231.81</ele><time>2014-11-05T11:28:35Z</time></trkpt><trkpt lat="51.8260135688" lon="-2.1615491621"><ele>233.26</ele><time>2014-11-05T11:28:53Z</time></trkpt><trkpt lat="51.8260530476" lon="-2.1614759881"><ele>234.22</ele><time>2014-11-05T11:29:11Z</time></trkpt><trkpt lat="51.8261613417" lon="-2.1614169795"><ele>235.66</ele><time>2014-11-05T11:29:28Z</time></trkpt><trkpt lat="51.8263605796" lon="-2.1613269579"><ele>236.62</ele><time>2014-11-05T11:29:44Z</time></trkpt><trkpt lat="51.8264953606" lon="-2.1613114513"><ele>235.66</ele><time>2014-11-05T11:29:59Z</time></trkpt><trkpt lat="51.8266166467" lon="-2.1612226870"><ele>235.18</ele><time>2014-11-05T11:30:17Z</time></trkpt><trkpt lat="51.8267403636" lon="-2.1611340065"><ele>233.74</ele><time>2014-11-05T11:30:33Z</time></trkpt><trkpt lat="51.8269524258" lon="-2.1609470900"><ele>231.81</ele><time>2014-11-05T11:30:52Z</time></trkpt><trkpt lat="51.8270347361" lon="-2.1608434897"><ele>230.85</ele><time>2014-11-05T11:31:08Z</time></trkpt><trkpt lat="51.8271716963" lon="-2.1607802063"><ele>230.37</ele><time>2014-11-05T11:31:24Z</time></trkpt><trkpt lat="51.8273225706" lon="-2.1607605927"><ele>230.85</ele><time>2014-11-05T11:31:41Z</time></trkpt><trkpt lat="51.8274627160" lon="-2.1605935413"><ele>229.89</ele><time>2014-11-05T11:31:59Z</time></trkpt><trkpt lat="51.8276706710" lon="-2.1604362968"><ele>227.49</ele><time>2014-11-05T11:32:21Z</time></trkpt><trkpt lat="51.8278566655" lon="-2.1603414975"><ele>225.57</ele><time>2014-11-05T11:32:40Z</time></trkpt><trkpt lat="51.8279770296" lon="-2.1602735203"><ele>224.61</ele><time>2014-11-05T11:32:59Z</time></trkpt><trkpt lat="51.8280629441" lon="-2.1601937246"><ele>225.57</ele><time>2014-11-05T11:33:17Z</time></trkpt><trkpt lat="51.8281984795" lon="-2.1601461153"><ele>228.45</ele><time>2014-11-05T11:33:37Z</time></trkpt><trkpt lat="51.8283889163" lon="-2.1600343008"><ele>229.41</ele><time>2014-11-05T11:33:56Z</time></trkpt><trkpt lat="51.8285213504" lon="-2.1600191295"><ele>229.41</ele><time>2014-11-05T11:34:17Z</time></trkpt><trkpt lat="51.8285751622" lon="-2.1599886194"><ele>229.41</ele><time>2014-11-05T11:34:36Z</time></trkpt><trkpt lat="51.8286834564" lon="-2.1599317901"><ele>229.41</ele><time>2014-11-05T11:34:54Z</time></trkpt><trkpt lat="51.8289172277" lon="-2.1598705184"><ele>229.89</ele><time>2014-11-05T11:35:11Z</time></trkpt><trkpt lat="51.8289619032" lon="-2.1598622203"><ele>229.89</ele><time>2014-11-05T11:35:29Z</time></trkpt><trkpt lat="51.8290079199" lon="-2.1598541737"><ele>230.37</ele><time>2014-11-05T11:36:00Z</time></trkpt><trkpt lat="51.8290459737" lon="-2.1598429419"><ele>231.33</ele><time>2014-11-05T11:36:31Z</time></trkpt><trkpt lat="51.8290569540" lon="-2.1598119289"><ele>231.33</ele><time>2014-11-05T11:36:49Z</time></trkpt><trkpt lat="51.8290323950" lon="-2.1597193927"><ele>233.74</ele><time>2014-11-05T11:37:09Z</time></trkpt><trkpt lat="51.8290108535" lon="-2.1595400199"><ele>236.14</ele><time>2014-11-05T11:37:24Z</time></trkpt><trkpt lat="51.8290662579" lon="-2.1594059095"><ele>238.06</ele><time>2014-11-05T11:37:39Z</time></trkpt><trkpt lat="51.8291070778" lon="-2.1593316458"><ele>240.47</ele><time>2014-11-05T11:37:57Z</time></trkpt><trkpt lat="51.8292048108" lon="-2.1592102759"><ele>241.91</ele><time>2014-11-05T11:38:13Z</time></trkpt><trkpt lat="51.8293528352" lon="-2.1590893250"><ele>241.43</ele><time>2014-11-05T11:38:27Z</time></trkpt><trkpt lat="51.8294817489" lon="-2.1589788515"><ele>242.39</ele><time>2014-11-05T11:38:42Z</time></trkpt><trkpt lat="51.8295126781" lon="-2.1589381155"><ele>242.39</ele><time>2014-11-05T11:39:04Z</time></trkpt><trkpt lat="51.8295410089" lon="-2.1589129698"><ele>242.87</ele><time>2014-11-05T11:39:26Z</time></trkpt><trkpt lat="51.8295550067" lon="-2.1589002293"><ele>242.87</ele><time>2014-11-05T11:39:52Z</time></trkpt><trkpt lat="51.8295491394" lon="-2.1589143947"><ele>243.35</ele><time>2014-11-05T11:40:14Z</time></trkpt><trkpt lat="51.8295748718" lon="-2.1588903386"><ele>243.35</ele><time>2014-11-05T11:40:28Z</time></trkpt><trkpt lat="51.8296280131" lon="-2.1587617602"><ele>245.27</ele><time>2014-11-05T11:40:45Z</time></trkpt><trkpt lat="51.8297494669" lon="-2.1586345229"><ele>247.68</ele><time>2014-11-05T11:40:53Z</time></trkpt><trkpt lat="51.8297714274" lon="-2.1585828066"><ele>248.64</ele><time>2014-11-05T11:40:59Z</time></trkpt><trkpt lat="51.8297815695" lon="-2.1585630253"><ele>249.12</ele><time>2014-11-05T11:41:00Z</time></trkpt><trkpt lat="51.8298040330" lon="-2.1585206129"><ele>249.12</ele><time>2014-11-05T11:41:02Z</time></trkpt><trkpt lat="51.8300057016" lon="-2.1581939701"><ele>250.56</ele><time>2014-11-05T11:41:18Z</time></trkpt><trkpt lat="51.8301926181" lon="-2.1579070576"><ele>250.56</ele><time>2014-11-05T11:41:34Z</time></trkpt><trkpt lat="51.8303208612" lon="-2.1578054689"><ele>250.56</ele><time>2014-11-05T11:41:44Z</time></trkpt><trkpt lat="51.8303525448" lon="-2.1578046307"><ele>251.04</ele><time>2014-11-05T11:41:46Z</time></trkpt><trkpt lat="51.8303942867" lon="-2.1578032058"><ele>249.60</ele><time>2014-11-05T11:41:48Z</time></trkpt><trkpt lat="51.8305119686" lon="-2.1577787306"><ele>249.12</ele><time>2014-11-05T11:41:55Z</time></trkpt><trkpt lat="51.8305511121" lon="-2.1577783953"><ele>249.60</ele><time>2014-11-05T11:41:58Z</time></trkpt><trkpt lat="51.8307117932" lon="-2.1578476299"><ele>248.64</ele><time>2014-11-05T11:42:09Z</time></trkpt><trkpt lat="51.8307764176" lon="-2.1578338835"><ele>248.16</ele><time>2014-11-05T11:42:14Z</time></trkpt><trkpt lat="51.8308464903" lon="-2.1578683332"><ele>248.16</ele><time>2014-11-05T11:42:23Z</time></trkpt><trkpt lat="51.8308438081" lon="-2.1578689199"><ele>246.72</ele><time>2014-11-05T11:42:43Z</time></trkpt><trkpt lat="51.8308558781" lon="-2.1578550059"><ele>246.23</ele><time>2014-11-05T11:43:04Z</time></trkpt><trkpt lat="51.8308644276" lon="-2.1578968316"><ele>246.23</ele><time>2014-11-05T11:43:27Z</time></trkpt><trkpt lat="51.8308614101" lon="-2.1579001844"><ele>248.64</ele><time>2014-11-05T11:43:51Z</time></trkpt><trkpt lat="51.8308702111" lon="-2.1578912996"><ele>248.16</ele><time>2014-11-05T11:44:18Z</time></trkpt><trkpt lat="51.8308607396" lon="-2.1578970831"><ele>248.16</ele><time>2014-11-05T11:44:32Z</time></trkpt><trkpt lat="51.8308292236" lon="-2.1579094883"><ele>248.64</ele><time>2014-11-05T11:44:36Z</time></trkpt><trkpt lat="51.8307741545" lon="-2.1579493023"><ele>249.12</ele><time>2014-11-05T11:44:41Z</time></trkpt><trkpt lat="51.8307360169" lon="-2.1579567622"><ele>249.12</ele><time>2014-11-05T11:44:45Z</time></trkpt><trkpt lat="51.8306531198" lon="-2.1579212230"><ele>249.60</ele><time>2014-11-05T11:44:58Z</time></trkpt><trkpt lat="51.8306231964" lon="-2.1579020284"><ele>249.60</ele><time>2014-11-05T11:45:05Z</time></trkpt><trkpt lat="51.8305707257" lon="-2.1578909643"><ele>250.56</ele><time>2014-11-05T11:45:11Z</time></trkpt><trkpt lat="51.8305145670" lon="-2.1578721888"><ele>251.04</ele><time>2014-11-05T11:45:18Z</time></trkpt><trkpt lat="51.8304284010" lon="-2.1578353923"><ele>252.00</ele><time>2014-11-05T11:45:29Z</time></trkpt><trkpt lat="51.8303889222" lon="-2.1578105818"><ele>253.93</ele><time>2014-11-05T11:45:36Z</time></trkpt><trkpt lat="51.8303543888" lon="-2.1577940695"><ele>253.44</ele><time>2014-11-05T11:45:41Z</time></trkpt><trkpt lat="51.8303231243" lon="-2.1577725280"><ele>254.41</ele><time>2014-11-05T11:45:45Z</time></trkpt><trkpt lat="51.8302694801" lon="-2.1577673312"><ele>254.89</ele><time>2014-11-05T11:45:54Z</time></trkpt><trkpt lat="51.8302400596" lon="-2.1577760484"><ele>255.85</ele><time>2014-11-05T11:45:57Z</time></trkpt><trkpt lat="51.8301190250" lon="-2.1576886252"><ele>258.73</ele><time>2014-11-05T11:46:11Z</time></trkpt><trkpt lat="51.8300557416" lon="-2.1576564386"><ele>258.73</ele><time>2014-11-05T11:46:25Z</time></trkpt><trkpt lat="51.8300406542" lon="-2.1576493140"><ele>259.21</ele><time>2014-11-05T11:46:26Z</time></trkpt><trkpt lat="51.8300176878" lon="-2.1576579474"><ele>259.69</ele><time>2014-11-05T11:46:30Z</time></trkpt><trkpt lat="51.8299648818" lon="-2.1576763038"><ele>262.10</ele><time>2014-11-05T11:46:41Z</time></trkpt><trkpt lat="51.8298781291" lon="-2.1576528344"><ele>262.58</ele><time>2014-11-05T11:46:55Z</time></trkpt><trkpt lat="51.8298007641" lon="-2.1576190554"><ele>263.54</ele><time>2014-11-05T11:47:05Z</time></trkpt><trkpt lat="51.8297605310" lon="-2.1576091647"><ele>264.02</ele><time>2014-11-05T11:47:09Z</time></trkpt><trkpt lat="51.8296946492" lon="-2.1574979369"><ele>264.02</ele><time>2014-11-05T11:47:18Z</time></trkpt><trkpt lat="51.8296406697" lon="-2.1575002000"><ele>264.02</ele><time>2014-11-05T11:47:23Z</time></trkpt><trkpt lat="51.8295700103" lon="-2.1573986113"><ele>264.50</ele><time>2014-11-05T11:47:32Z</time></trkpt><trkpt lat="51.8295137677" lon="-2.1573764831"><ele>264.50</ele><time>2014-11-05T11:47:37Z</time></trkpt><trkpt lat="51.8294830900" lon="-2.1573185641"><ele>265.46</ele><time>2014-11-05T11:47:41Z</time></trkpt><trkpt lat="51.8294780608" lon="-2.1572950110"><ele>265.46</ele><time>2014-11-05T11:47:44Z</time></trkpt><trkpt lat="51.8294139393" lon="-2.1572294645"><ele>266.42</ele><time>2014-11-05T11:47:54Z</time></trkpt><trkpt lat="51.8294017017" lon="-2.1572151314"><ele>266.90</ele><time>2014-11-05T11:47:56Z</time></trkpt><trkpt lat="51.8293906376" lon="-2.1571779996"><ele>266.42</ele><time>2014-11-05T11:47:59Z</time></trkpt><trkpt lat="51.8293607980" lon="-2.1571175661"><ele>266.42</ele><time>2014-11-05T11:48:04Z</time></trkpt><trkpt lat="51.8293283600" lon="-2.1570377704"><ele>265.94</ele><time>2014-11-05T11:48:14Z</time></trkpt><trkpt lat="51.8293051422" lon="-2.1570036560"><ele>265.46</ele><time>2014-11-05T11:48:18Z</time></trkpt><trkpt lat="51.8292741291" lon="-2.1569340862"><ele>265.46</ele><time>2014-11-05T11:48:23Z</time></trkpt><trkpt lat="51.8292421941" lon="-2.1569034085"><ele>264.98</ele><time>2014-11-05T11:48:27Z</time></trkpt><trkpt lat="51.8292314652" lon="-2.1568744909"><ele>265.46</ele><time>2014-11-05T11:48:29Z</time></trkpt><trkpt lat="51.8291393481" lon="-2.1566827968"><ele>264.50</ele><time>2014-11-05T11:48:44Z</time></trkpt><trkpt lat="51.8290556967" lon="-2.1564955451"><ele>264.02</ele><time>2014-11-05T11:48:57Z</time></trkpt><trkpt lat="51.8290468957" lon="-2.1564418171"><ele>263.06</ele><time>2014-11-05T11:49:02Z</time></trkpt><trkpt lat="51.8289320637" lon="-2.1563773602"><ele>260.17</ele><time>2014-11-05T11:49:16Z</time></trkpt><trkpt lat="51.8288078438" lon="-2.1563393902"><ele>260.65</ele><time>2014-11-05T11:49:34Z</time></trkpt><trkpt lat="51.8287048303" lon="-2.1563051920"><ele>258.73</ele><time>2014-11-05T11:49:50Z</time></trkpt><trkpt lat="51.8286912516" lon="-2.1563031804"><ele>258.25</ele><time>2014-11-05T11:49:54Z</time></trkpt><trkpt lat="51.8286044989" lon="-2.1562407352"><ele>260.65</ele><time>2014-11-05T11:50:09Z</time></trkpt><trkpt lat="51.8285633437" lon="-2.1562917810"><ele>261.14</ele><time>2014-11-05T11:50:21Z</time></trkpt><trkpt lat="51.8284459133" lon="-2.1563108079"><ele>265.46</ele><time>2014-11-05T11:50:34Z</time></trkpt><trkpt lat="51.8284404650" lon="-2.1563099697"><ele>261.62</ele><time>2014-11-05T11:50:35Z</time></trkpt><trkpt lat="51.8283672072" lon="-2.1564063616"><ele>261.14</ele><time>2014-11-05T11:50:50Z</time></trkpt><trkpt lat="51.8282103818" lon="-2.1564808767"><ele>260.65</ele><time>2014-11-05T11:51:06Z</time></trkpt><trkpt lat="51.8280946277" lon="-2.1564821340"><ele>259.69</ele><time>2014-11-05T11:51:18Z</time></trkpt><trkpt lat="51.8280004989" lon="-2.1564872470"><ele>259.21</ele><time>2014-11-05T11:51:25Z</time></trkpt><trkpt lat="51.8279865012" lon="-2.1564991493"><ele>259.69</ele><time>2014-11-05T11:51:28Z</time></trkpt><trkpt lat="51.8279200327" lon="-2.1564373747"><ele>259.21</ele><time>2014-11-05T11:51:41Z</time></trkpt><trkpt lat="51.8279123213" lon="-2.1563472692"><ele>259.69</ele><time>2014-11-05T11:51:59Z</time></trkpt><trkpt lat="51.8278207909" lon="-2.1563534718"><ele>261.62</ele><time>2014-11-05T11:52:15Z</time></trkpt><trkpt lat="51.8276760355" lon="-2.1562472731"><ele>263.06</ele><time>2014-11-05T11:52:30Z</time></trkpt><trkpt lat="51.8275165278" lon="-2.1561254840"><ele>264.02</ele><time>2014-11-05T11:52:47Z</time></trkpt><trkpt lat="51.8274264224" lon="-2.1560082212"><ele>263.54</ele><time>2014-11-05T11:53:04Z</time></trkpt><trkpt lat="51.8273287732" lon="-2.1558847558"><ele>263.54</ele><time>2014-11-05T11:53:19Z</time></trkpt><trkpt lat="51.8272447027" lon="-2.1558288485"><ele>263.06</ele><time>2014-11-05T11:53:33Z</time></trkpt><trkpt lat="51.8272009492" lon="-2.1557105798"><ele>262.10</ele><time>2014-11-05T11:53:48Z</time></trkpt><trkpt lat="51.8271281943" lon="-2.1555989329"><ele>261.62</ele><time>2014-11-05T11:54:06Z</time></trkpt><trkpt lat="51.8270912301" lon="-2.1555520780"><ele>261.62</ele><time>2014-11-05T11:54:26Z</time></trkpt><trkpt lat="51.8270766456" lon="-2.1555160359"><ele>262.58</ele><time>2014-11-05T11:54:54Z</time></trkpt><trkpt lat="51.8270370830" lon="-2.1554752160"><ele>261.14</ele><time>2014-11-05T11:55:09Z</time></trkpt><trkpt lat="51.8269692734" lon="-2.1554299537"><ele>259.69</ele><time>2014-11-05T11:55:18Z</time></trkpt><trkpt lat="51.8268281221" lon="-2.1553580370"><ele>259.69</ele><time>2014-11-05T11:55:34Z</time></trkpt><trkpt lat="51.8267089315" lon="-2.1551970206"><ele>258.25</ele><time>2014-11-05T11:55:48Z</time></trkpt><trkpt lat="51.8266277947" lon="-2.1550712083"><ele>257.77</ele><time>2014-11-05T11:55:59Z</time></trkpt><trkpt lat="51.8264913373" lon="-2.1549819410"><ele>256.81</ele><time>2014-11-05T11:56:16Z</time></trkpt><trkpt lat="51.8264237791" lon="-2.1549316496"><ele>255.85</ele><time>2014-11-05T11:56:27Z</time></trkpt><trkpt lat="51.8262751680" lon="-2.1548380237"><ele>254.89</ele><time>2014-11-05T11:56:42Z</time></trkpt><trkpt lat="51.8262660317" lon="-2.1548200864"><ele>254.89</ele><time>2014-11-05T11:56:43Z</time></trkpt><trkpt lat="51.8262271397" lon="-2.1547337528"><ele>254.89</ele><time>2014-11-05T11:56:48Z</time></trkpt><trkpt lat="51.8261822127" lon="-2.1546482574"><ele>254.89</ele><time>2014-11-05T11:56:55Z</time></trkpt><trkpt lat="51.8260319252" lon="-2.1545087826"><ele>254.89</ele><time>2014-11-05T11:57:13Z</time></trkpt><trkpt lat="51.8259385508" lon="-2.1544005722"><ele>252.96</ele><time>2014-11-05T11:57:27Z</time></trkpt><trkpt lat="51.8258478586" lon="-2.1542626899"><ele>250.56</ele><time>2014-11-05T11:57:42Z</time></trkpt><trkpt lat="51.8257160950" lon="-2.1541657113"><ele>248.64</ele><time>2014-11-05T11:57:57Z</time></trkpt><trkpt lat="51.8256642111" lon="-2.1541360393"><ele>248.64</ele><time>2014-11-05T11:58:01Z</time></trkpt><trkpt lat="51.8256424181" lon="-2.1540732589"><ele>248.16</ele><time>2014-11-05T11:58:06Z</time></trkpt><trkpt lat="51.8255508039" lon="-2.1540139988"><ele>246.72</ele><time>2014-11-05T11:58:17Z</time></trkpt><trkpt lat="51.8254009355" lon="-2.1539696585"><ele>245.75</ele><time>2014-11-05T11:58:33Z</time></trkpt><trkpt lat="51.8253693357" lon="-2.1539453510"><ele>246.23</ele><time>2014-11-05T11:58:48Z</time></trkpt><trkpt lat="51.8252897076" lon="-2.1538479533"><ele>245.27</ele><time>2014-11-05T11:59:00Z</time></trkpt><trkpt lat="51.8252052180" lon="-2.1538430080"><ele>246.72</ele><time>2014-11-05T11:59:15Z</time></trkpt><trkpt lat="51.8251712713" lon="-2.1538774576"><ele>245.75</ele><time>2014-11-05T11:59:17Z</time></trkpt><trkpt lat="51.8249970116" lon="-2.1538565867"><ele>246.23</ele><time>2014-11-05T11:59:29Z</time></trkpt><trkpt lat="51.8248290382" lon="-2.1537733544"><ele>245.75</ele><time>2014-11-05T11:59:42Z</time></trkpt><trkpt lat="51.8247203249" lon="-2.1537846699"><ele>246.23</ele><time>2014-11-05T11:59:57Z</time></trkpt><trkpt lat="51.8246053252" lon="-2.1537578478"><ele>245.27</ele><time>2014-11-05T12:00:10Z</time></trkpt><trkpt lat="51.8245194945" lon="-2.1537069697"><ele>245.27</ele><time>2014-11-05T12:00:18Z</time></trkpt><trkpt lat="51.8244560435" lon="-2.1536748670"><ele>245.27</ele><time>2014-11-05T12:00:27Z</time></trkpt><trkpt lat="51.8243060075" lon="-2.1536539122"><ele>244.79</ele><time>2014-11-05T12:00:42Z</time></trkpt><trkpt lat="51.8241858948" lon="-2.1537383180"><ele>244.31</ele><time>2014-11-05T12:00:53Z</time></trkpt><trkpt lat="51.8241382856" lon="-2.1537791379"><ele>244.31</ele><time>2014-11-05T12:00:58Z</time></trkpt><trkpt lat="51.8240094557" lon="-2.1537254099"><ele>244.31</ele><time>2014-11-05T12:01:11Z</time></trkpt><trkpt lat="51.8238730822" lon="-2.1537110768"><ele>245.27</ele><time>2014-11-05T12:01:26Z</time></trkpt><trkpt lat="51.8237476889" lon="-2.1536661498"><ele>244.79</ele><time>2014-11-05T12:01:41Z</time></trkpt><trkpt lat="51.8235748541" lon="-2.1536932234"><ele>246.23</ele><time>2014-11-05T12:01:57Z</time></trkpt><trkpt lat="51.8234512210" lon="-2.1536705922"><ele>245.75</ele><time>2014-11-05T12:02:11Z</time></trkpt><trkpt lat="51.8233943917" lon="-2.1536498051"><ele>247.68</ele><time>2014-11-05T12:02:22Z</time></trkpt><trkpt lat="51.8233602773" lon="-2.1536590252"><ele>248.16</ele><time>2014-11-05T12:02:35Z</time></trkpt><trkpt lat="51.8233328685" lon="-2.1536639705"><ele>247.68</ele><time>2014-11-05T12:02:53Z</time></trkpt><trkpt lat="51.8232974969" lon="-2.1536636353"><ele>248.16</ele><time>2014-11-05T12:03:07Z</time></trkpt><trkpt lat="51.8232828286" lon="-2.1536533255"><ele>248.64</ele><time>2014-11-05T12:03:24Z</time></trkpt><trkpt lat="51.8232099060" lon="-2.1536470391"><ele>249.12</ele><time>2014-11-05T12:03:34Z</time></trkpt><trkpt lat="51.8230257556" lon="-2.1536117513"><ele>249.12</ele><time>2014-11-05T12:03:49Z</time></trkpt><trkpt lat="51.8229867797" lon="-2.1536394116"><ele>249.60</ele><time>2014-11-05T12:04:05Z</time></trkpt><trkpt lat="51.8229144439" lon="-2.1536055487"><ele>249.12</ele><time>2014-11-05T12:04:24Z</time></trkpt><trkpt lat="51.8228170462" lon="-2.1534173749"><ele>248.16</ele><time>2014-11-05T12:04:38Z</time></trkpt><trkpt lat="51.8227749690" lon="-2.1532671712"><ele>247.20</ele><time>2014-11-05T12:04:52Z</time></trkpt><trkpt lat="51.8227142841" lon="-2.1530365013"><ele>246.23</ele><time>2014-11-05T12:05:05Z</time></trkpt><trkpt lat="51.8226587120" lon="-2.1529224236"><ele>244.79</ele><time>2014-11-05T12:05:16Z</time></trkpt><trkpt lat="51.8226258550" lon="-2.1528831124"><ele>244.79</ele><time>2014-11-05T12:05:19Z</time></trkpt><trkpt lat="51.8225962669" lon="-2.1528765745"><ele>244.31</ele><time>2014-11-05T12:05:22Z</time></trkpt><trkpt lat="51.8225127831" lon="-2.1528450586"><ele>242.87</ele><time>2014-11-05T12:05:37Z</time></trkpt><trkpt lat="51.8224767409" lon="-2.1527921688"><ele>241.91</ele><time>2014-11-05T12:05:45Z</time></trkpt><trkpt lat="51.8224574625" lon="-2.1526070964"><ele>242.39</ele><time>2014-11-05T12:05:57Z</time></trkpt><trkpt lat="51.8224416208" lon="-2.1524984669"><ele>241.91</ele><time>2014-11-05T12:06:05Z</time></trkpt><trkpt lat="51.8224276230" lon="-2.1524040028"><ele>241.91</ele><time>2014-11-05T12:06:11Z</time></trkpt><trkpt lat="51.8224205822" lon="-2.1523202676"><ele>241.91</ele><time>2014-11-05T12:06:16Z</time></trkpt><trkpt lat="51.8224101886" lon="-2.1522242948"><ele>241.91</ele><time>2014-11-05T12:06:27Z</time></trkpt><trkpt lat="51.8223613221" lon="-2.1521995682"><ele>239.99</ele><time>2014-11-05T12:06:38Z</time></trkpt><trkpt lat="51.8222653493" lon="-2.1522432379"><ele>238.54</ele><time>2014-11-05T12:06:51Z</time></trkpt><trkpt lat="51.8221877329" lon="-2.1522381250"><ele>236.62</ele><time>2014-11-05T12:07:05Z</time></trkpt><trkpt lat="51.8221777584" lon="-2.1522356104"><ele>236.14</ele><time>2014-11-05T12:07:22Z</time></trkpt><trkpt lat="51.8220809475" lon="-2.1523641050"><ele>233.26</ele><time>2014-11-05T12:07:38Z</time></trkpt><trkpt lat="51.8219681270" lon="-2.1523535438"><ele>232.30</ele><time>2014-11-05T12:07:55Z</time></trkpt><trkpt lat="51.8218511157" lon="-2.1522773523"><ele>229.41</ele><time>2014-11-05T12:08:12Z</time></trkpt><trkpt lat="51.8217899278" lon="-2.1521888394"><ele>227.49</ele><time>2014-11-05T12:08:26Z</time></trkpt><trkpt lat="51.8217600882" lon="-2.1521907672"><ele>226.53</ele><time>2014-11-05T12:08:28Z</time></trkpt><trkpt lat="51.8217139039" lon="-2.1521521267"><ele>225.57</ele><time>2014-11-05T12:08:46Z</time></trkpt><trkpt lat="51.8216235470" lon="-2.1520849876"><ele>223.16</ele><time>2014-11-05T12:09:01Z</time></trkpt><trkpt lat="51.8214448448" lon="-2.1520922799"><ele>220.76</ele><time>2014-11-05T12:09:17Z</time></trkpt><trkpt lat="51.8214129936" lon="-2.1520519629"><ele>219.32</ele><time>2014-11-05T12:09:23Z</time></trkpt><trkpt lat="51.8213556614" lon="-2.1519874223"><ele>218.36</ele><time>2014-11-05T12:09:37Z</time></trkpt><trkpt lat="51.8212803919" lon="-2.1519469377"><ele>215.95</ele><time>2014-11-05T12:09:49Z</time></trkpt><trkpt lat="51.8212504685" lon="-2.1518841572"><ele>214.99</ele><time>2014-11-05T12:10:00Z</time></trkpt><trkpt lat="51.8211974949" lon="-2.1518384758"><ele>214.03</ele><time>2014-11-05T12:10:07Z</time></trkpt><trkpt lat="51.8211754505" lon="-2.1518046968"><ele>214.03</ele><time>2014-11-05T12:10:10Z</time></trkpt><trkpt lat="51.8210641388" lon="-2.1515757870"><ele>212.59</ele><time>2014-11-05T12:10:26Z</time></trkpt><trkpt lat="51.8210531585" lon="-2.1514996793"><ele>212.59</ele><time>2014-11-05T12:10:45Z</time></trkpt><trkpt lat="51.8210561760" lon="-2.1514614578"><ele>212.11</ele><time>2014-11-05T12:11:00Z</time></trkpt><trkpt lat="51.8210574333" lon="-2.1514578536"><ele>210.67</ele><time>2014-11-05T12:11:09Z</time></trkpt><trkpt lat="51.8210336287" lon="-2.1514701750"><ele>210.19</ele><time>2014-11-05T12:11:13Z</time></trkpt><trkpt lat="51.8209669087" lon="-2.1515119169"><ele>209.70</ele><time>2014-11-05T12:11:21Z</time></trkpt><trkpt lat="51.8208980095" lon="-2.1514482982"><ele>208.74</ele><time>2014-11-05T12:11:35Z</time></trkpt><trkpt lat="51.8209178746" lon="-2.1514148545"><ele>209.22</ele><time>2014-11-05T12:11:49Z</time></trkpt><trkpt lat="51.8208312895" lon="-2.1513224859"><ele>207.78</ele><time>2014-11-05T12:12:05Z</time></trkpt><trkpt lat="51.8207115959" lon="-2.1512913052"><ele>205.86</ele><time>2014-11-05T12:12:20Z</time></trkpt><trkpt lat="51.8205918185" lon="-2.1512919758"><ele>204.42</ele><time>2014-11-05T12:12:35Z</time></trkpt><trkpt lat="51.8205419462" lon="-2.1512648184"><ele>203.46</ele><time>2014-11-05T12:12:43Z</time></trkpt><trkpt lat="51.8204344902" lon="-2.1513589472"><ele>200.57</ele><time>2014-11-05T12:12:57Z</time></trkpt><trkpt lat="51.8203507550" lon="-2.1513780579"><ele>200.57</ele><time>2014-11-05T12:13:04Z</time></trkpt><trkpt lat="51.8202633318" lon="-2.1514331270"><ele>199.13</ele><time>2014-11-05T12:13:14Z</time></trkpt><trkpt lat="51.8201646768" lon="-2.1514240745"><ele>198.65</ele><time>2014-11-05T12:13:22Z</time></trkpt><trkpt lat="51.8201276287" lon="-2.1514150221"><ele>198.17</ele><time>2014-11-05T12:13:31Z</time></trkpt><trkpt lat="51.8200904131" lon="-2.1514207218"><ele>197.21</ele><time>2014-11-05T12:13:35Z</time></trkpt><trkpt lat="51.8200274650" lon="-2.1514558420"><ele>197.21</ele><time>2014-11-05T12:13:40Z</time></trkpt><trkpt lat="51.8199889921" lon="-2.1514565125"><ele>197.21</ele><time>2014-11-05T12:13:43Z</time></trkpt><trkpt lat="51.8198342621" lon="-2.1514986735"><ele>195.28</ele><time>2014-11-05T12:13:58Z</time></trkpt><trkpt lat="51.8197043426" lon="-2.1515316982"><ele>193.84</ele><time>2014-11-05T12:14:11Z</time></trkpt><trkpt lat="51.8196395505" lon="-2.1515213884"><ele>193.36</ele><time>2014-11-05T12:14:17Z</time></trkpt><trkpt lat="51.8195533846" lon="-2.1515237354"><ele>192.88</ele><time>2014-11-05T12:14:30Z</time></trkpt><trkpt lat="51.8193782028" lon="-2.1515990049"><ele>191.44</ele><time>2014-11-05T12:14:45Z</time></trkpt><trkpt lat="51.8193665519" lon="-2.1516011842"><ele>191.92</ele><time>2014-11-05T12:14:46Z</time></trkpt><trkpt lat="51.8192186113" lon="-2.1516726818"><ele>191.44</ele><time>2014-11-05T12:15:01Z</time></trkpt><trkpt lat="51.8191670626" lon="-2.1517050359"><ele>190.48</ele><time>2014-11-05T12:15:07Z</time></trkpt><trkpt lat="51.8190164398" lon="-2.1517531481"><ele>189.52</ele><time>2014-11-05T12:15:24Z</time></trkpt><trkpt lat="51.8189608678" lon="-2.1518148389"><ele>189.52</ele><time>2014-11-05T12:15:40Z</time></trkpt><trkpt lat="51.8188773841" lon="-2.1518172696"><ele>190.00</ele><time>2014-11-05T12:15:52Z</time></trkpt><trkpt lat="51.8187998515" lon="-2.1518860850"><ele>189.04</ele><time>2014-11-05T12:16:11Z</time></trkpt><trkpt lat="51.8186811637" lon="-2.1519491170"><ele>189.04</ele><time>2014-11-05T12:16:25Z</time></trkpt><trkpt lat="51.8185742106" lon="-2.1519626118"><ele>189.52</ele><time>2014-11-05T12:16:41Z</time></trkpt><trkpt lat="51.8185571115" lon="-2.1519827284"><ele>189.04</ele><time>2014-11-05T12:16:43Z</time></trkpt><trkpt lat="51.8184691854" lon="-2.1520196088"><ele>188.08</ele><time>2014-11-05T12:16:58Z</time></trkpt><trkpt lat="51.8184254318" lon="-2.1520894300"><ele>189.04</ele><time>2014-11-05T12:17:14Z</time></trkpt><trkpt lat="51.8183919042" lon="-2.1521015000"><ele>188.08</ele><time>2014-11-05T12:17:28Z</time></trkpt><trkpt lat="51.8181595579" lon="-2.1522944514"><ele>188.56</ele><time>2014-11-05T12:17:44Z</time></trkpt><trkpt lat="51.8181329872" lon="-2.1523304097"><ele>187.11</ele><time>2014-11-05T12:18:01Z</time></trkpt><trkpt lat="51.8180953525" lon="-2.1523121372"><ele>188.56</ele><time>2014-11-05T12:18:27Z</time></trkpt><trkpt lat="51.8180735596" lon="-2.1522982232"><ele>188.08</ele><time>2014-11-05T12:18:29Z</time></trkpt><trkpt lat="51.8178958632" lon="-2.1523894183"><ele>188.56</ele><time>2014-11-05T12:18:43Z</time></trkpt><trkpt lat="51.8178661913" lon="-2.1524206828"><ele>187.11</ele><time>2014-11-05T12:19:01Z</time></trkpt><trkpt lat="51.8178029079" lon="-2.1524104569"><ele>188.08</ele><time>2014-11-05T12:19:17Z</time></trkpt><trkpt lat="51.8176805321" lon="-2.1523383725"><ele>187.59</ele><time>2014-11-05T12:19:32Z</time></trkpt><trkpt lat="51.8175460864" lon="-2.1523343492"><ele>186.63</ele><time>2014-11-05T12:19:44Z</time></trkpt><trkpt lat="51.8174508680" lon="-2.1523889154"><ele>186.63</ele><time>2014-11-05T12:19:56Z</time></trkpt><trkpt lat="51.8173084594" lon="-2.1524297353"><ele>187.11</ele><time>2014-11-05T12:20:10Z</time></trkpt><trkpt lat="51.8172611855" lon="-2.1524695493"><ele>185.67</ele><time>2014-11-05T12:20:22Z</time></trkpt><trkpt lat="51.8172015063" lon="-2.1523107961"><ele>186.63</ele><time>2014-11-05T12:20:39Z</time></trkpt><trkpt lat="51.8172362074" lon="-2.1522344369"><ele>186.63</ele><time>2014-11-05T12:20:58Z</time></trkpt><trkpt lat="51.8171294220" lon="-2.1523674577"><ele>185.67</ele><time>2014-11-05T12:21:14Z</time></trkpt><trkpt lat="51.8170564156" lon="-2.1524708904"><ele>184.23</ele><time>2014-11-05T12:21:29Z</time></trkpt><trkpt lat="51.8170337006" lon="-2.1525077708"><ele>185.19</ele><time>2014-11-05T12:21:44Z</time></trkpt><trkpt lat="51.8169840798" lon="-2.1525589004"><ele>182.79</ele><time>2014-11-05T12:22:00Z</time></trkpt><trkpt lat="51.8169642147" lon="-2.1526087727"><ele>180.87</ele><time>2014-11-05T12:22:15Z</time></trkpt><trkpt lat="51.8168708403" lon="-2.1527166478"><ele>180.87</ele><time>2014-11-05T12:22:31Z</time></trkpt><trkpt lat="51.8168134242" lon="-2.1527639218"><ele>179.90</ele><time>2014-11-05T12:22:39Z</time></trkpt><trkpt lat="51.8168112449" lon="-2.1527191624"><ele>179.42</ele><time>2014-11-05T12:22:56Z</time></trkpt><trkpt lat="51.8167968281" lon="-2.1527454816"><ele>177.98</ele><time>2014-11-05T12:23:16Z</time></trkpt><trkpt lat="51.8167462852" lon="-2.1528024785"><ele>176.54</ele><time>2014-11-05T12:23:29Z</time></trkpt><trkpt lat="51.8166830018" lon="-2.1528232656"><ele>174.62</ele><time>2014-11-05T12:23:44Z</time></trkpt><trkpt lat="51.8166174553" lon="-2.1527945995"><ele>174.14</ele><time>2014-11-05T12:23:52Z</time></trkpt><trkpt lat="51.8165098317" lon="-2.1528339945"><ele>173.66</ele><time>2014-11-05T12:24:01Z</time></trkpt><trkpt lat="51.8165008631" lon="-2.1528858785"><ele>172.69</ele><time>2014-11-05T12:24:10Z</time></trkpt><trkpt lat="51.8164631445" lon="-2.1529396065"><ele>171.73</ele><time>2014-11-05T12:24:18Z</time></trkpt><trkpt lat="51.8163967598" lon="-2.1528937574"><ele>171.25</ele><time>2014-11-05T12:24:26Z</time></trkpt><trkpt lat="51.8163452949" lon="-2.1528674383"><ele>169.81</ele><time>2014-11-05T12:24:33Z</time></trkpt><trkpt lat="51.8163055647" lon="-2.1528883930"><ele>169.33</ele><time>2014-11-05T12:24:38Z</time></trkpt><trkpt lat="51.8162312172" lon="-2.1529168077"><ele>168.85</ele><time>2014-11-05T12:24:50Z</time></trkpt><trkpt lat="51.8162323069" lon="-2.1529177297"><ele>166.45</ele><time>2014-11-05T12:24:53Z</time></trkpt><trkpt lat="51.8162124418" lon="-2.1529541910"><ele>168.37</ele><time>2014-11-05T12:24:57Z</time></trkpt><trkpt lat="51.8161896430" lon="-2.1529596392"><ele>168.85</ele><time>2014-11-05T12:24:59Z</time></trkpt><trkpt lat="51.8161094282" lon="-2.1529867966"><ele>168.37</ele><time>2014-11-05T12:25:07Z</time></trkpt><trkpt lat="51.8159671873" lon="-2.1528903209"><ele>168.85</ele><time>2014-11-05T12:25:19Z</time></trkpt><trkpt lat="51.8159445561" lon="-2.1528142132"><ele>169.33</ele><time>2014-11-05T12:25:23Z</time></trkpt><trkpt lat="51.8159100227" lon="-2.1527015604"><ele>169.33</ele><time>2014-11-05T12:25:29Z</time></trkpt><trkpt lat="51.8158864696" lon="-2.1525123809"><ele>171.73</ele><time>2014-11-05T12:25:41Z</time></trkpt><trkpt lat="51.8158447277" lon="-2.1524469182"><ele>173.17</ele><time>2014-11-05T12:25:45Z</time></trkpt><trkpt lat="51.8158180732" lon="-2.1523885801"><ele>173.66</ele><time>2014-11-05T12:25:50Z</time></trkpt><trkpt lat="51.8157999683" lon="-2.1523715649"><ele>173.66</ele><time>2014-11-05T12:25:52Z</time></trkpt><trkpt lat="51.8156946078" lon="-2.1523093712"><ele>176.54</ele><time>2014-11-05T12:26:03Z</time></trkpt><trkpt lat="51.8156512734" lon="-2.1522898413"><ele>176.06</ele><time>2014-11-05T12:26:09Z</time></trkpt><trkpt lat="51.8155687954" lon="-2.1522235405"><ele>179.90</ele><time>2014-11-05T12:26:23Z</time></trkpt><trkpt lat="51.8154822104" lon="-2.1522106323"><ele>179.42</ele><time>2014-11-05T12:26:35Z</time></trkpt><trkpt lat="51.8154125568" lon="-2.1522833034"><ele>181.83</ele><time>2014-11-05T12:26:49Z</time></trkpt><trkpt lat="51.8152774405" lon="-2.1523821261"><ele>181.83</ele><time>2014-11-05T12:27:05Z</time></trkpt><trkpt lat="51.8152364530" lon="-2.1524252929"><ele>184.23</ele><time>2014-11-05T12:27:20Z</time></trkpt><trkpt lat="51.8151958846" lon="-2.1525039151"><ele>183.75</ele><time>2014-11-05T12:27:27Z</time></trkpt><trkpt lat="51.8150527216" lon="-2.1526568010"><ele>186.63</ele><time>2014-11-05T12:27:42Z</time></trkpt><trkpt lat="51.8150448427" lon="-2.1526689548"><ele>185.19</ele><time>2014-11-05T12:27:43Z</time></trkpt><trkpt lat="51.8149523903" lon="-2.1527890675"><ele>187.11</ele><time>2014-11-05T12:27:59Z</time></trkpt><trkpt lat="51.8149226345" lon="-2.1527859662"><ele>187.59</ele><time>2014-11-05T12:28:14Z</time></trkpt><trkpt lat="51.8149214610" lon="-2.1527875587"><ele>187.11</ele><time>2014-11-05T12:28:22Z</time></trkpt></trkseg></trk></gpx>